Majuro, Marshall Islands
Current Conditions -  °F | °C
As of 3:30 PM on Saturday 29 Nov 2014 (Local Time) from PKMR Reporting Station
Thunderstorm Thunderstorm  
Wind Chill: 79°   Ceiling: 4500
Heat Index: 83°   Visibility: 8mi
Dew Point: 77°   Wind: 14mph
Humidity: 94%   Direction: 50°NE
Pressure: 29.66"   Gusts: NA
Location:  7.08°N, 171.38°E
Report Text: PKMR 290330Z 05012KT 8SM TS -SHRA SCT012CB BKN045 OVC110 26/25 A2966 RMK TSB30 NE MOV OHD CB NW-NE-E MOV W
Loading
Personal Weather Stations






























Interactive Weather Map New forecast layout! Learn more

10-Day Weather Forecast

Advertisements
Track Severe Weather on mobile